Terminal Aerodrome Forecast
Issued by NWS

Home | Current Version | Previous Version | Text Only | Print | Product List | Glossary On
Versions: 1 2 3 4 5 6 7 8 9 10 11 12 13 14 15
000
FTUS42 KMLB 202300
TAFISM
TAF
KISM 202326Z 2100/2124 02004KT P6SM BKN250
     FM211500 04012KT P6SM FEW040 SCT250
      AMD NOT SKED 2103/2112=

USA.gov is the U.S. government's official web portal to all federal, state and local government web resources and services.